Alma, Arkansas
Current Conditions -  °F | °C
As of 12:53 PM on Friday 21 Nov 2014 (Local Time) from KFSM Reporting Station
Haze Haze  
Wind Chill: 42°   Ceiling: 700
Heat Index: 47°   Visibility: 3mi
Dew Point: 44°   Wind: 12mph
Humidity: 90%   Direction: 70°ENE
Pressure: 30.18"   Gusts: NA
Location:  35.48°N, 94.22°W
Report Text: KFSM 211853Z 07010KT 3SM BR OVC007 08/07 A3018 RMK AO2 RAB14E36 SLP221 P0000 T00830067
Loading
Personal Weather Stations






























Interactive Weather Map New forecast layout! Learn more

10-Day Weather Forecast

Advertisements
Track Severe Weather on mobile